This is the latest recevied weather packets stored in our database for station/object EA1RCG-11. If no packets are shown the sender has not sent any weather packets the latest 10 day(s).
| Time | Temp. | Humidity | Pressure | Rain* | Wind** | Luminosity | Snow |
|---|---|---|---|---|---|---|---|
| 1777374241 | 28.33° C | 50% | 978.1 hPa | - | - | - | - |
| 1777372441 | 29.44° C | 46% | 978.5 hPa | - | - | - | - |
| 1777370641 | 35° C | 40% | 978.9 hPa | - | - | - | - |
| 1777368840 | 22.78° C | 54% | 979 hPa | - | - | - | - |
| 1777367040 | 23.89° C | 52% | 978.9 hPa | - | - | - | - |
| 1777365240 | 19.44° C | 58% | 979.2 hPa | - | - | - | - |
| 1777363440 | 17.78° C | 61% | 979.4 hPa | - | - | - | - |
| 1777361640 | 16.67° C | 62% | 979.4 hPa | - | - | - | - |
| 1777359840 | 16.11° C | 64% | 979.3 hPa | - | - | - | - |
| 1777358040 | 15.56° C | 64% | 979.4 hPa | - | - | - | - |
| 1777356240 | 15.56° C | 64% | 979 hPa | - | - | - | - |
| 1777354440 | 15° C | 65% | 979 hPa | - | - | - | - |
| 1777352640 | 15° C | 65% | 978.9 hPa | - | - | - | - |
| 1777350839 | 15° C | 65% | 978.8 hPa | - | - | - | - |
| 1777349039 | 15° C | 65% | 979 hPa | - | - | - | - |
| 1777347239 | 15° C | 65% | 979.1 hPa | - | - | - | - |
| 1777345439 | 15° C | 65% | 979.2 hPa | - | - | - | - |
| 1777343639 | 15° C | 65% | 979.5 hPa | - | - | - | - |
| 1777341839 | 15° C | 65% | 979.6 hPa | - | - | - | - |
| 1777340039 | 15° C | 65% | 979.9 hPa | - | - | - | - |
| 1777338239 | 15° C | 65% | 980.1 hPa | - | - | - | - |
| 1777336439 | 15° C | 65% | 980.1 hPa | - | - | - | - |
| 1777334638 | 15.56° C | 65% | 980.3 hPa | - | - | - | - |
| 1777332838 | 15.56° C | 65% | 980.6 hPa | - | - | - | - |
| 1777331038 | 15.56° C | 64% | 980.9 hPa | - | - | - | - |
* Rain since midnight (hover to see other rain measurements)
** Current wind speed in m/s (hover to see current wind gust speed)